Time;durP1;ratioP1;P1;durP2;ratioP2;P2;SDS_P1;SDS_P2;PMS_P1;PMS_P2;Temp;Humidity;BMP_temperature;BMP_pressure;BME280_temperature;BME280_humidity;BME280_pressure;Samples;Min_cycle;Max_cycle;Signal;HPM_P1;HPM_P2
2023/04/03 00:00:49;;;;;;;;;;;;;;;;;;;;;
2023/04/03 00:04:35;;;;;;;;;;;;;;;;;;;;;
2023/04/03 00:11:43;;;;;;;5.00;1.90;;;;;;;0.41;77.74;101603.45;103933;1267;69170;-63
2023/04/03 00:19:19;;;;;;;5.30;2.20;;;;;;;0.25;77.69;101602.54;104185;1273;84291;-62
2023/04/03 00:26:55;;;;;;;4.80;1.60;;;;;;;0.16;77.92;101609.70;104257;1269;69329;-62
2023/04/03 00:30:47;;;;;;;4.90;1.80;;;;;;;0.13;78.13;101608.95;104694;1261;69149;-62
2023/04/03 00:34:36;;;;;;;7.70;1.80;;;;;;;0.11;78.26;101607.53;104610;1265;73528;-62
2023/04/03 00:38:25;;;;;;;6.80;2.00;;;;;;;0.11;78.30;101615.43;104972;1260;83501;-61
2023/04/03 00:42:05;;;;;;;;;;;;;;;;;;;;;
2023/04/03 00:46:12;;;;;;;7.60;2.30;;;;;;;0.10;78.53;101614.90;105391;1257;69286;-62
2023/04/03 00:50:01;;;;;;;6.80;1.80;;;;;;;0.10;78.68;101618.67;104558;1262;69358;-62
2023/04/03 00:53:50;;;;;;;6.90;2.10;;;;;;;0.10;78.83;101620.04;104607;1262;74202;-63
2023/04/03 00:57:28;;;;;;;6.60;2.20;;;;;;;0.10;78.95;101619.88;104692;1265;83508;-62
2023/04/03 01:01:18;;;;;;;8.60;2.20;;;;;;;0.07;78.97;101620.83;104676;1265;73393;-62
2023/04/03 01:05:13;;;;;;;6.90;2.00;;;;;;;0.06;78.98;101626.66;104592;1265;70923;-62
2023/04/03 01:09:02;;;;;;;8.00;1.80;;;;;;;0.04;79.00;101628.83;104423;1271;69233;-60
2023/04/03 01:12:54;;;;;;;6.20;1.90;;;;;;;0.01;79.21;101630.30;104265;1272;72421;-63
2023/04/03 01:16:40;;;;;;;;;;;;;;;;;;;;;
2023/04/03 01:24:24;;;;;;;9.20;2.40;;;;;;;-0.08;79.37;101637.80;104327;1268;69213;-62
2023/04/03 01:43:52;;;;;;;10.50;2.60;;;;;;;-0.21;79.90;101652.59;102057;1294;602449;-61
2023/04/03 01:47:40;;;;;;;10.30;2.60;;;;;;;-0.26;80.04;101656.55;104360;1269;69105;-61
2023/04/03 01:59:00;;;;;;;6.10;1.90;;;;;;;-0.37;80.15;101667.44;100206;1270;81581;-61
2023/04/03 02:02:50;;;;;;;8.70;2.60;;;;;;;-0.42;80.34;101666.08;104098;1281;69265;-61
2023/04/03 02:06:39;;;;;;;6.40;1.90;;;;;;;-0.45;80.42;101667.02;104080;1274;69165;-62
2023/04/03 02:10:28;;;;;;;4.00;1.30;;;;;;;-0.48;80.57;101667.13;104206;1276;72783;-61
2023/04/03 02:14:42;;;;;;;6.80;1.70;;;;;;;-0.52;80.64;101668.73;104061;1270;82586;-64
2023/04/03 02:21:56;;;;;;;5.80;1.70;;;;;;;-0.62;80.73;101673.41;104095;1276;69210;-62
2023/04/03 02:25:45;;;;;;;5.10;1.90;;;;;;;-0.68;80.77;101671.34;104193;1284;69467;-62
2023/04/03 02:29:32;;;;;;;;;;;;;;;;;;;;;
2023/04/03 02:33:23;;;;;;;7.60;1.60;;;;;;;-0.78;81.10;101676.55;104414;1268;82594;-62
2023/04/03 02:37:12;;;;;;;6.80;1.60;;;;;;;-0.80;81.28;101679.58;104565;1270;72782;-60
2023/04/03 02:40:55;;;;;;;5.80;1.70;;;;;;;-0.84;81.26;101679.96;104596;1270;69243;-60
2023/04/03 02:48:32;;;;;;;9.60;2.30;;;;;;;-0.91;81.53;101684.91;104723;1267;73321;-62
2023/04/03 02:52:21;;;;;;;4.90;1.40;;;;;;;-0.96;81.63;101681.16;104718;1266;83423;-60
2023/04/03 02:56:03;;;;;;;4.30;1.50;;;;;;;-1.00;81.59;101688.06;104622;1264;73779;-62
2023/04/03 02:59:44;;;;;;;;;;;;;;;;;;;;;
2023/04/03 03:03:24;;;;;;;6.70;2.00;;;;;;;-1.09;81.91;101688.98;104628;1269;69103;-63
2023/04/03 03:07:13;;;;;;;6.80;1.90;;;;;;;-1.13;81.89;101689.88;104562;1269;73455;-62
2023/04/03 03:10:45;;;;;;;;;;;;;;;;;;;;;
2023/04/03 03:14:33;;;;;;;;;;;;;;;;;;;;;
2023/04/03 03:18:24;;;;;;;6.20;1.70;;;;;;;-1.29;82.28;101697.10;104600;1263;69725;-61
2023/04/03 03:22:09;;;;;;;;;;;;;;;;;;;;;
2023/04/03 03:25:53;;;;;;;6.40;1.90;;;;;;;-1.39;82.49;101697.95;104687;1268;75274;-60
2023/04/03 03:29:43;;;;;;;8.00;1.70;;;;;;;-1.41;82.85;101700.16;104706;1263;83858;-63
2023/04/03 03:33:32;;;;;;;8.10;1.50;;;;;;;-1.43;82.84;101699.23;104656;1263;73811;-61
2023/04/03 03:37:21;;;;;;;8.10;2.20;;;;;;;-1.47;82.89;101704.75;104692;1267;69192;-61
2023/04/03 03:41:10;;;;;;;7.30;3.10;;;;;;;-1.50;82.93;101704.46;104656;1264;69107;-60
2023/04/03 03:48:49;;;;;;;7.70;3.00;;;;;;;-1.54;83.31;101708.27;104770;1264;82529;-61
2023/04/03 03:52:38;;;;;;;12.30;6.70;;;;;;;-1.56;83.51;101710.78;104698;1266;73579;-62
2023/04/03 04:00:05;;;;;;;17.20;8.20;;;;;;;-1.61;83.47;101709.23;104607;1267;69221;-61
2023/04/03 04:03:55;;;;;;;22.10;8.70;;;;;;;-1.63;83.82;101711.60;104746;1264;73279;-61
2023/04/03 04:11:41;;;;;;;;;;;;;;;;;;;;;
2023/04/03 04:19:03;;;;;;;36.90;12.00;;;;;;;-1.67;84.06;101719.50;104268;1270;69322;-63
2023/04/03 04:26:41;;;;;;;27.30;12.00;;;;;;;-1.68;84.16;101726.50;104417;1274;83354;-62
2023/04/03 04:30:24;;;;;;;9.30;4.00;;;;;;;-1.68;84.24;101727.71;104364;1271;73758;-62
2023/04/03 04:34:13;;;;;;;24.20;6.00;;;;;;;-1.68;84.30;101733.34;104365;1274;69096;-62
2023/04/03 04:41:52;;;;;;;31.70;7.90;;;;;;;-1.69;84.42;101732.45;104165;1275;73658;-62
2023/04/03 04:49:30;;;;;;;20.40;5.50;;;;;;;-1.70;84.64;101738.43;104512;1279;72719;-63
2023/04/03 05:00:51;;;;;;;59.10;16.80;;;;;;;-1.63;84.79;101746.73;104633;1265;71436;-66
2023/04/03 05:08:29;;;;;;;18.40;6.60;;;;;;;-1.57;85.09;101756.02;104591;1265;73492;-60
2023/04/03 05:12:19;;;;;;;23.50;7.00;;;;;;;-1.54;85.06;101758.16;104632;1265;69152;-62
2023/04/03 05:16:08;;;;;;;23.90;7.20;;;;;;;-1.52;85.02;101758.94;104769;1260;69177;-62
2023/04/03 05:23:21;;;;;;;;;;;;;;;;;;;;;
2023/04/03 05:26:30;;;;;;;16.80;6.00;;;;;;;-1.42;85.19;101771.42;104703;1266;72441;-63
2023/04/03 05:29:53;;;;;;;25.30;6.80;;;;;;;-1.38;85.16;101774.99;104808;1260;69547;-62
2023/04/03 05:34:08;;;;;;;23.40;7.60;;;;;;;-1.34;85.32;101776.02;104811;1265;69231;-62
2023/04/03 05:37:05;;;;;;;28.50;8.10;;;;;;;-1.28;85.41;101775.31;104752;1261;73597;-67
2023/04/03 05:40:49;;;;;;;24.90;6.70;;;;;;;-1.24;85.22;101775.44;104745;1264;83529;-68
2023/04/03 05:44:20;;;;;;;23.80;8.20;;;;;;;-1.20;85.36;101781.95;104766;1260;71699;-67
2023/04/03 05:47:50;;;;;;;;;;;;;;;;;;;;;
2023/04/03 05:51:17;;;;;;;17.80;6.40;;;;;;;-1.10;85.44;101785.17;105031;1265;69192;-68
2023/04/03 05:55:07;;;;;;;18.40;6.70;;;;;;;-1.05;85.57;101780.02;104831;1267;72978;-68
2023/04/03 05:58:39;;;;;;;20.70;7.10;;;;;;;-0.98;85.65;101785.73;104363;1262;84126;-68
2023/04/03 06:01:46;;;;;;;;;;;;;;;;;;;;;
2023/04/03 06:05:11;;;;;;;18.20;5.70;;;;;;;-0.86;85.58;101791.11;104880;1264;69262;-67
2023/04/03 06:08:35;;;;;;;14.00;4.50;;;;;;;-0.77;85.71;101793.61;104725;1262;69213;-68
2023/04/03 06:12:24;;;;;;;15.50;5.80;;;;;;;-0.68;85.85;101794.92;104782;1264;73309;-68
2023/04/03 06:16:14;;;;;;;20.80;6.60;;;;;;;-0.56;86.19;101800.98;104684;1265;83612;-68
2023/04/03 06:27:20;;;;;;;13.10;5.00;;;;;;;-0.09;86.60;101807.54;104786;1262;69185;-62
2023/04/03 06:30:48;;;;;;;;;;;;;;;;;;;;;
2023/04/03 06:34:31;;;;;;;17.10;6.10;;;;;;;0.16;86.28;101812.36;104698;1267;83440;-64
2023/04/03 06:38:09;;;;;;;;;;;;;;;;;;;;;
2023/04/03 06:44:54;;;;;;;;;;;;;;;;;;;;;
2023/04/03 06:48:20;;;;;;;4.80;1.80;;;;;;;0.54;86.12;101818.55;104927;1260;73248;-62
2023/04/03 06:52:08;;;;;;;7.30;2.30;;;;;;;0.68;86.20;101817.38;104796;1261;83090;-61
2023/04/03 06:55:32;;;;;;;9.60;2.30;;;;;;;0.80;86.01;101822.86;104807;1267;73853;-60
2023/04/03 06:59:05;;;;;;;;;;;;;;;;;;;;;
2023/04/03 07:02:28;;;;;;;;;;;;;;;;;;;;;
2023/04/03 07:05:55;;;;;;;12.70;3.40;;;;;;;1.07;85.24;101823.02;104680;1267;72336;-61
2023/04/03 07:09:24;;;;;;;10.70;3.50;;;;;;;1.14;84.78;101822.84;104852;1265;84370;-61
2023/04/03 07:13:01;;;;;;;12.10;3.10;;;;;;;1.19;84.86;101827.63;104802;1262;72534;-60
2023/04/03 07:16:35;;;;;;;9.10;3.30;;;;;;;1.29;84.70;101829.24;104760;1262;69182;-59
2023/04/03 07:20:18;;;;;;;10.50;2.80;;;;;;;1.38;84.39;101834.45;104504;1270;69269;-62
2023/04/03 07:23:38;;;;;;;8.30;2.40;;;;;;;1.49;84.92;101836.26;104379;1267;73040;-62
2023/04/03 07:27:02;;;;;;;;;;;;;;;;;;;;;
2023/04/03 07:30:03;;;;;;;6.80;2.20;;;;;;;1.79;84.26;101845.20;104742;1267;73982;-63
2023/04/03 07:33:12;;;;;;;7.60;2.40;;;;;;;1.88;84.02;101847.29;104691;1270;69439;-62
2023/04/03 07:37:11;;;;;;;11.60;4.30;;;;;;;1.96;83.55;101849.89;104613;1267;69274;-62
2023/04/03 07:40:07;;;;;;;9.10;2.90;;;;;;;2.07;83.57;101850.96;104485;1267;72867;-65
2023/04/03 07:43:51;;;;;;;;;;;;;;;;;;;;;
2023/04/03 07:47:33;;;;;;;6.60;1.70;;;;;;;2.34;83.10;101849.64;104439;1267;73936;-65
2023/04/03 07:50:33;;;;;;;9.90;4.00;;;;;;;2.64;83.42;101850.71;104527;1262;69442;-64
2023/04/03 07:54:04;;;;;;;13.60;5.30;;;;;;;2.88;83.21;101843.41;104790;1263;69183;-62
2023/04/03 07:57:46;;;;;;;;;;;;;;;;;;;;;
2023/04/03 08:00:59;;;;;;;6.10;2.10;;;;;;;3.11;81.63;101842.23;104761;1262;83432;-59
2023/04/03 08:04:15;;;;;;;5.90;2.50;;;;;;;3.33;81.53;101842.95;104827;1260;72773;-60
2023/04/03 08:07:26;;;;;;;8.20;3.10;;;;;;;3.54;81.60;101847.05;104819;1265;69127;-60
2023/04/03 08:10:51;;;;;;;6.80;2.40;;;;;;;3.70;81.12;101846.61;104915;1261;69033;-57
2023/04/03 08:17:33;;;;;;;;;;;;;;;;;;;;;
2023/04/03 08:20:45;;;;;;;6.40;2.10;;;;;;;4.14;79.68;101845.65;105376;1254;72509;-60
2023/04/03 08:23:39;;;;;;;8.10;2.70;;;;;;;4.24;78.97;101843.19;105498;1253;69167;-59
2023/04/03 08:26:57;;;;;;;7.50;1.90;;;;;;;4.31;79.14;101846.20;105453;1257;69190;-59
2023/04/03 08:30:28;;;;;;;7.20;1.50;;;;;;;4.33;78.74;101846.40;105467;1256;72042;-60
2023/04/03 08:33:57;;;;;;;;;;;;;;;;;;;;;
2023/04/03 08:36:53;;;;;;;5.60;1.60;;;;;;;4.53;77.99;101845.92;105404;1254;73742;-62
2023/04/03 08:40:16;;;;;;;3.30;1.30;;;;;;;4.78;77.31;101847.75;105364;1257;69283;-61
2023/04/03 08:43:30;;;;;;;5.40;1.40;;;;;;;5.00;76.88;101841.02;105356;1253;69083;-61
2023/04/03 08:46:42;;;;;;;;;;;;;;;;;;;;;
2023/04/03 08:49:51;;;;;;;2.20;0.90;;;;;;;5.70;76.28;101843.83;105555;1254;83472;-62
2023/04/03 08:53:13;;;;;;;6.10;1.20;;;;;;;5.80;74.76;101841.27;105589;1256;72735;-61
2023/04/03 08:56:09;;;;;;;2.90;1.10;;;;;;;6.01;74.91;101844.02;105144;1263;69100;-61
2023/04/03 08:59:21;;;;;;;6.90;2.80;;;;;;;6.23;74.49;101845.16;104854;1265;69176;-61
2023/04/03 09:02:36;;;;;;;;;;;;;;;;;;;;;
2023/04/03 09:05:42;;;;;;;4.70;1.30;;;;;;;6.53;73.06;101832.58;104823;1260;83341;-62
2023/04/03 09:08:58;;;;;;;;;;;;;;;;;;;;;
2023/04/03 09:12:11;;;;;;;;;;;;;;;;;;;;;
2023/04/03 09:15:41;;;;;;;;;;;;;;;;;;;;;
2023/04/03 09:18:40;;;;;;;;;;;;;;;;;;;;;
2023/04/03 09:21:43;;;;;;;2.50;0.90;;;;;;;5.97;70.42;101844.86;104968;1262;82616;-61
2023/04/03 09:25:10;;;;;;;2.70;1.00;;;;;;;6.02;69.38;101842.98;104926;1260;74006;-62
2023/04/03 09:27:58;;;;;;;2.50;1.00;;;;;;;6.03;69.55;101845.42;104870;1261;69398;-62
2023/04/03 09:31:18;;;;;;;3.60;1.20;;;;;;;6.12;68.85;101839.55;104878;1261;69240;-61
2023/04/03 09:34:28;;;;;;;;;;;;;;;6.02;67.92;101842.98;105405;1257;74020;-60
2023/04/03 09:37:58;;;;;;;2.80;1.00;;;;;;;6.16;68.85;101835.23;105405;1257;83374;-60
2023/04/03 09:41:02;;;;;;;2.50;1.20;;;;;;;6.52;68.46;101835.87;105299;1253;73637;-61
2023/04/03 09:44:00;;;;;;;6.10;1.70;;;;;;;6.42;67.48;101837.23;105406;1257;69243;-60
2023/04/03 09:47:10;;;;;;;;;;;;;;;;;;;;;
2023/04/03 09:50:56;;;;;;;6.70;2.70;;;;;;;6.18;66.67;101846.18;105565;1253;74103;-62
2023/04/03 09:53:53;;;;;;;5.50;2.00;;;;;;;6.56;67.31;101834.50;104983;1261;83682;-62
2023/04/03 09:56:49;;;;;;;;;;;;;;;;;;;;;
2023/04/03 09:59:34;;;;;;;5.00;2.00;;;;;;;6.85;66.21;101837.33;104906;1262;69220;-62
2023/04/03 10:03:02;;;;;;;3.60;2.00;;;;;;;6.67;65.32;101829.30;104819;1261;69511;-60
2023/04/03 10:06:09;;;;;;;;;;;;;;;;;;;;;
2023/04/03 10:09:04;;;;;;;6.40;2.80;;;;;;;6.26;64.86;101835.80;104895;1261;83265;-60
2023/04/03 10:12:14;;;;;;;6.30;2.90;;;;;;;6.24;64.65;101830.58;105083;1266;72860;-60
2023/04/03 10:15:18;;;;;;;4.40;1.20;;;;;;;6.25;64.74;101838.05;104874;1262;69176;-60
2023/04/03 10:18:32;;;;;;;3.50;1.10;;;;;;;6.09;63.94;101835.73;104641;1272;69243;-59
2023/04/03 10:21:45;;;;;;;;;;;;;;;;;;;;;
2023/04/03 10:25:16;;;;;;;5.00;1.10;;;;;;;6.64;64.44;101830.00;104645;1272;83365;-51
2023/04/03 10:28:21;;;;;;;4.10;2.20;;;;;;;6.91;63.19;101824.66;104508;1264;72828;-51
2023/04/03 10:31:15;;;;;;;3.40;1.20;;;;;;;6.86;63.03;101832.81;104678;1268;70124;-49
2023/04/03 10:34:29;;;;;;;;;;;;;;;;;;;;;
2023/04/03 10:37:49;;;;;;;3.70;1.00;;;;;;;6.47;62.32;101830.13;104701;1264;74137;-53
2023/04/03 10:40:34;;;;;;;4.00;1.10;;;;;;;6.29;62.42;101834.41;104276;1271;83409;-51
2023/04/03 10:43:47;;;;;;;2.40;1.00;;;;;;;6.18;61.61;101833.67;104004;1271;73711;-54
2023/04/03 10:46:36;;;;;;;4.50;0.90;;;;;;;5.98;61.29;101832.71;104159;1271;70127;-50
2023/04/03 10:49:46;;;;;;;2.60;1.00;;;;;;;5.77;60.95;101829.64;104120;1271;70004;-49
2023/04/03 10:52:55;;;;;;;2.10;1.20;;;;;;;5.99;61.58;101824.20;104532;1272;74274;-50
2023/04/03 10:56:15;;;;;;;3.80;1.20;;;;;;;6.91;62.59;101807.96;104537;1270;83343;-51
2023/04/03 10:59:24;;;;;;;3.20;1.40;;;;;;;7.70;61.99;101818.16;104713;1269;74089;-50
2023/04/03 11:02:52;;;;;;;2.30;1.40;;;;;;;7.59;60.89;101821.14;104451;1266;70052;-54
2023/04/03 11:05:55;;;;;;;3.10;1.20;;;;;;;7.30;60.17;101823.80;104955;1264;70019;-51
2023/04/03 11:09:07;;;;;;;3.10;1.20;;;;;;;7.21;60.31;101821.71;104450;1271;74280;-50
2023/04/03 11:12:11;;;;;;;3.80;1.40;;;;;;;7.27;60.01;101816.84;104504;1271;83384;-56
2023/04/03 11:15:32;;;;;;;5.20;1.40;;;;;;;7.94;60.60;101816.52;104424;1268;73879;-58
2023/04/03 11:18:44;;;;;;;3.40;1.20;;;;;;;8.69;60.38;101803.98;104898;1259;69256;-57
2023/04/03 11:21:31;;;;;;;2.70;1.40;;;;;;;9.35;59.23;101798.90;104897;1265;69337;-56
2023/04/03 11:24:48;;;;;;;6.40;1.60;;;;;;;9.73;58.89;101794.51;105007;1263;72036;-61
2023/04/03 11:27:51;;;;;;;2.50;1.20;;;;;;;9.29;57.83;101805.06;105045;1264;83533;-59
2023/04/03 11:31:04;;;;;;;4.40;1.10;;;;;;;8.76;56.86;101804.63;104959;1260;73399;-60
2023/04/03 11:34:48;;;;;;;3.20;1.20;;;;;;;8.40;56.77;101806.59;104432;1267;69251;-60
2023/04/03 11:37:55;;;;;;;2.80;1.10;;;;;;;9.00;57.33;101796.78;104141;1271;69206;-57
2023/04/03 11:40:45;;;;;;;2.10;1.10;;;;;;;9.67;57.41;101795.61;104080;1273;73438;-60
2023/04/03 11:43:36;;;;;;;4.10;1.60;;;;;;;10.26;57.46;101784.42;104363;1273;83976;-60
2023/04/03 11:46:58;;;;;;;3.70;2.10;;;;;;;10.79;56.79;101779.48;104695;1262;73664;-62
2023/04/03 11:50:21;;;;;;;5.50;2.00;;;;;;;10.73;55.59;101778.00;104816;1266;69229;-60
2023/04/03 11:53:00;;;;;;;;;;;;;;;10.23;54.81;101775.04;104821;1262;70519;-61
2023/04/03 11:55:48;;;;;;;4.70;1.50;;;;;;;9.77;54.38;101779.80;104811;1262;74057;-64
2023/04/03 11:58:56;;;;;;;4.40;2.10;;;;;;;9.54;54.52;101782.67;104800;1265;83312;-61
2023/04/03 12:02:04;;;;;;;5.70;1.80;;;;;;;9.62;55.19;101786.95;104784;1262;73817;-60
2023/04/03 12:05:13;;;;;;;4.80;2.10;;;;;;;9.99;55.06;101784.77;105100;1255;69189;-62
2023/04/03 12:08:24;;;;;;;3.30;2.00;;;;;;;10.27;54.97;101783.91;105444;1254;69016;-61
2023/04/03 12:11:28;;;;;;;3.90;1.70;;;;;;;10.28;53.86;101778.98;105396;1254;73189;-60
2023/04/03 12:14:17;;;;;;;3.70;1.40;;;;;;;10.01;53.79;101780.02;105410;1257;83145;-61
2023/04/03 12:17:18;;;;;;;2.70;1.50;;;;;;;10.06;53.72;101780.30;105372;1256;73678;-61
2023/04/03 12:20:32;;;;;;;4.20;1.40;;;;;;;10.51;53.70;101774.14;105212;1256;69237;-63
2023/04/03 12:23:45;;;;;;;2.70;1.50;;;;;;;10.75;53.06;101773.95;105420;1255;69177;-60
2023/04/03 12:26:29;;;;;;;4.30;1.30;;;;;;;10.36;52.06;101771.22;105146;1258;73180;-60
2023/04/03 12:29:40;;;;;;;3.00;1.50;;;;;;;10.61;52.46;101771.17;105250;1258;83381;-61
2023/04/03 12:32:47;;;;;;;8.00;1.70;;;;;;;11.18;52.74;101764.13;104778;1262;72732;-62
2023/04/03 12:35:33;;;;;;;2.80;1.40;;;;;;;11.34;52.11;101763.48;104793;1262;69238;-61
2023/04/03 12:38:45;;;;;;;3.70;1.50;;;;;;;10.97;51.31;101763.27;104829;1265;69188;-62
2023/04/03 12:41:57;;;;;;;3.70;1.60;;;;;;;10.23;51.44;101769.80;104808;1262;73964;-60
2023/04/03 12:44:52;;;;;;;4.10;1.70;;;;;;;9.88;51.18;101768.84;104760;1265;83473;-60
2023/04/03 12:47:35;;;;;;;2.10;1.20;;;;;;;10.42;51.99;101760.64;104718;1265;71748;-60
2023/04/03 12:50:44;;;;;;;4.80;1.80;;;;;;;10.63;51.63;101762.42;104687;1263;69183;-60
2023/04/03 12:53:42;;;;;;;3.80;1.90;;;;;;;10.10;50.69;101772.05;104331;1273;69270;-60
2023/04/03 12:56:55;;;;;;;4.30;1.30;;;;;;;9.48;49.85;101767.19;104514;1268;74281;-59
2023/04/03 12:59:54;;;;;;;3.40;1.70;;;;;;;9.47;50.72;101762.33;103861;1278;83581;-61
2023/04/03 13:02:51;;;;;;;4.30;2.70;;;;;;;10.25;51.13;101754.05;104362;1269;74119;-60
2023/04/03 13:05:51;;;;;;;4.90;2.10;;;;;;;10.43;50.49;101754.86;103797;1276;69403;-62
2023/04/03 13:08:50;;;;;;;4.10;1.40;;;;;;;10.04;49.74;101761.30;103869;1268;69275;-60
2023/04/03 13:11:32;;;;;;;2.20;1.30;;;;;;;9.59;49.63;101759.75;104514;1270;72702;-62
2023/04/03 13:14:30;;;;;;;4.00;1.70;;;;;;;9.18;49.58;101761.91;104446;1271;83154;-58
2023/04/03 13:17:09;;;;;;;3.50;1.50;;;;;;;8.91;49.74;101764.60;104525;1267;73967;-58
2023/04/03 13:19:47;;;;;;;4.90;2.60;;;;;;;8.84;49.78;101762.23;104460;1268;69168;-53
2023/04/03 13:22:27;;;;;;;4.50;1.90;;;;;;;9.45;50.18;101754.48;104461;1270;69057;-57
2023/04/03 13:25:14;;;;;;;3.60;2.40;;;;;;;10.04;50.22;101757.48;104565;1268;74122;-59
2023/04/03 13:27:51;;;;;;;3.40;1.90;;;;;;;9.92;49.51;101758.84;104480;1267;82493;-56
2023/04/03 13:30:40;;;;;;;6.40;2.50;;;;;;;9.55;49.05;101764.67;104653;1260;73786;-54
2023/04/03 13:33:39;;;;;;;7.60;2.90;;;;;;;9.21;48.77;101761.38;105030;1264;69239;-50
2023/04/03 13:36:30;;;;;;;3.10;1.40;;;;;;;8.92;48.97;101761.80;104974;1263;69413;-51
2023/04/03 13:39:16;;;;;;;4.30;2.10;;;;;;;9.40;49.32;101759.08;104988;1259;74300;-54
2023/04/03 13:41:58;;;;;;;10.00;4.10;;;;;;;9.94;49.47;101751.99;105061;1264;83412;-57
2023/04/03 13:44:38;;;;;;;8.40;5.10;;;;;;;10.62;49.48;101748.45;105588;1253;73250;-58
2023/04/03 13:47:24;;;;;;;6.50;4.10;;;;;;;11.17;48.83;101744.37;105443;1258;69165;-55
2023/04/03 13:50:20;;;;;;;4.60;2.00;;;;;;;11.12;47.94;101739.40;105531;1256;69207;-54
2023/04/03 13:53:10;;;;;;;3.50;1.60;;;;;;;10.75;47.38;101740.37;105580;1257;73214;-53
2023/04/03 13:56:15;;;;;;;9.50;4.60;;;;;;;10.52;47.59;101739.17;105203;1253;83360;-58
2023/04/03 13:59:15;;;;;;;4.80;1.90;;;;;;;10.55;47.78;101740.17;105327;1254;72815;-59
2023/04/03 14:02:26;;;;;;;6.60;3.10;;;;;;;10.15;47.71;101743.17;105496;1253;69225;-59
2023/04/03 14:05:17;;;;;;;5.00;2.50;;;;;;;9.53;47.56;101744.80;105439;1257;69152;-57
2023/04/03 14:08:29;;;;;;;;;;;;;;;;;;;;;
2023/04/03 14:11:39;;;;;;;12.50;5.90;;;;;;;8.75;48.20;101747.99;105442;1258;83154;-56
2023/04/03 14:14:38;;;;;;;13.50;5.20;;;;;;;8.44;48.22;101749.78;104979;1260;73123;-59
2023/04/03 14:17:54;;;;;;;;;;;;;;;;;;;;;
2023/04/03 14:20:57;;;;;;;12.20;6.70;;;;;;;7.93;48.41;101755.61;105038;1262;69203;-60
2023/04/03 14:23:58;;;;;;;5.80;2.00;;;;;;;7.68;48.58;101758.14;105081;1260;74008;-57
2023/04/03 14:27:06;;;;;;;5.10;2.30;;;;;;;7.50;49.05;101758.38;105023;1262;83363;-57
2023/04/03 14:30:21;;;;;;;8.10;4.20;;;;;;;7.33;48.77;101760.33;104943;1260;73742;-56
2023/04/03 14:33:40;;;;;;;7.10;3.20;;;;;;;7.07;49.14;101761.59;104958;1265;69131;-56
2023/04/03 14:37:02;;;;;;;;;;;;;;;;;;;;;
2023/04/03 14:40:41;;;;;;;15.00;8.10;;;;;;;6.68;50.06;101764.17;104981;1262;72227;-58
2023/04/03 14:43:47;;;;;;;;;;;;;;;;;;;;;
2023/04/03 14:47:00;;;;;;;6.70;3.60;;;;;;;6.61;50.09;101757.40;105048;1260;73716;-56
2023/04/03 14:50:18;;;;;;;10.20;5.20;;;;;;;6.59;50.09;101757.73;105061;1262;69356;-55
2023/04/03 14:53:29;;;;;;;9.30;3.60;;;;;;;6.61;50.09;101755.65;105194;1254;69193;-58
2023/04/03 14:56:45;;;;;;;5.80;2.90;;;;;;;6.78;50.24;101754.63;105428;1256;74018;-56
2023/04/03 15:00:03;;;;;;;;;;;;;;;;;;;;;
2023/04/03 15:03:46;;;;;;;11.50;4.20;;;;;;;6.65;49.55;101754.45;105040;1260;74511;-58
2023/04/03 15:07:04;;;;;;;15.80;5.60;;;;;;;6.54;49.56;101752.17;105070;1257;69383;-58
2023/04/03 15:10:42;;;;;;;;;;;;;;;;;;;;;
2023/04/03 15:13:47;;;;;;;5.60;2.60;;;;;;;6.59;49.80;101748.55;104946;1258;73116;-54
2023/04/03 15:16:52;;;;;;;9.70;4.30;;;;;;;6.68;50.19;101745.77;105004;1263;84636;-58
2023/04/03 15:19:59;;;;;;;;;;;;;;;;;;;;;
2023/04/03 15:23:26;;;;;;;13.30;5.70;;;;;;;6.60;50.26;101744.55;104911;1258;69080;-56
2023/04/03 15:26:59;;;;;;;;;;;;;;;;;;;;;
2023/04/03 15:30:15;;;;;;;;;;;;;;;;;;;;;
2023/04/03 15:33:51;;;;;;;14.80;7.80;;;;;;;6.24;50.19;101747.25;104960;1263;83459;-56
2023/04/03 15:37:23;;;;;;;;;;;;;;;;;;;;;
2023/04/03 15:40:51;;;;;;;12.60;4.60;;;;;;;5.95;50.41;101746.65;105067;1253;69204;-57
2023/04/03 15:44:19;;;;;;;;;;;;;;;;;;;;;
2023/04/03 15:47:50;;;;;;;13.50;6.50;;;;;;;6.00;50.91;101745.45;105440;1258;74441;-54
2023/04/03 15:51:28;;;;;;;;;;;;;;;;;;;;;
2023/04/03 15:54:59;;;;;;;8.80;3.70;;;;;;;5.76;50.97;101748.27;105170;1256;74089;-59
2023/04/03 15:58:50;;;;;;;10.50;5.30;;;;;;;5.62;51.24;101749.09;105291;1256;69474;-56
2023/04/03 16:02:27;;;;;;;5.40;2.30;;;;;;;5.53;51.51;101748.16;105537;1253;69208;-55
2023/04/03 16:05:47;;;;;;;4.70;1.80;;;;;;;5.42;51.25;101745.33;105427;1257;74195;-58
2023/04/03 16:09:29;;;;;;;;;;;;;;;;;;;;;
2023/04/03 16:13:06;;;;;;;6.20;2.40;;;;;;;5.28;51.64;101750.11;105185;1254;73927;-53
2023/04/03 16:16:48;;;;;;;;;;;;;;;;;;;;;
2023/04/03 16:20:07;;;;;;;;;;;;;;;5.10;52.24;101752.23;105609;1256;69191;-61
2023/04/03 16:23:55;;;;;;;7.00;2.00;;;;;;;5.03;52.39;101753.39;105691;1256;72191;-60
2023/04/03 16:27:29;;;;;;;5.00;1.80;;;;;;;4.97;52.54;101758.71;105309;1256;83362;-58
2023/04/03 16:30:57;;;;;;;4.20;1.90;;;;;;;4.85;52.54;101760.01;105210;1253;73778;-58
2023/04/03 16:38:23;;;;;;;;;;;;;;;;;;;;;
2023/04/03 16:42:04;;;;;;;;;;;;;;;;;;;;;
2023/04/03 16:45:54;;;;;;;4.30;1.70;;;;;;;4.51;53.07;101774.07;105489;1253;83549;-57
2023/04/03 16:49:43;;;;;;;5.50;1.80;;;;;;;4.40;52.93;101772.40;105350;1252;73720;-59
2023/04/03 16:53:21;;;;;;;19.40;10.00;;;;;;;4.32;53.13;101775.95;105371;1255;69188;-58
2023/04/03 16:57:10;;;;;;;4.30;2.40;;;;;;;4.26;53.50;101780.22;105616;1254;70656;-56
2023/04/03 17:00:59;;;;;;;5.40;2.90;;;;;;;4.22;54.02;101778.97;105439;1255;74034;-58
2023/04/03 17:04:40;;;;;;;;;;;;;;;;;;;;;
2023/04/03 17:08:24;;;;;;;3.20;2.00;;;;;;;4.15;54.42;101783.38;105321;1256;73646;-59
2023/04/03 17:12:12;;;;;;;11.20;6.20;;;;;;;4.09;54.28;101786.60;105405;1257;69217;-56
2023/04/03 17:19:50;;;;;;;11.20;5.10;;;;;;;3.99;54.83;101787.70;105348;1254;74227;-57
2023/04/03 17:23:22;;;;;;;21.80;9.80;;;;;;;3.91;54.49;101790.88;105418;1254;83513;-59
2023/04/03 17:26:50;;;;;;;12.40;4.80;;;;;;;3.84;54.20;101796.14;105517;1256;73054;-54
2023/04/03 17:30:39;;;;;;;10.90;4.30;;;;;;;3.79;54.26;101796.94;105638;1255;69182;-58
2023/04/03 17:34:39;;;;;;;;;;;;;;;;;;;;;
2023/04/03 17:38:07;;;;;;;12.80;5.40;;;;;;;3.70;54.21;101798.20;105410;1255;73072;-60
2023/04/03 17:41:57;;;;;;;7.00;2.90;;;;;;;3.67;54.26;101801.96;105413;1257;83032;-55
2023/04/03 17:45:46;;;;;;;10.10;3.80;;;;;;;3.62;54.34;101799.65;105366;1256;73812;-59
2023/04/03 17:49:17;;;;;;;;;;;;;;;;;;;;;
2023/04/03 17:53:08;;;;;;;9.60;3.80;;;;;;;3.55;54.47;101801.63;105326;1252;69221;-58
2023/04/03 17:56:57;;;;;;;9.60;4.50;;;;;;;3.51;54.53;101802.77;105254;1257;73092;-60
2023/04/03 18:00:46;;;;;;;8.30;3.20;;;;;;;3.48;54.36;101803.42;105300;1258;83196;-54
2023/04/03 18:04:22;;;;;;;12.50;4.10;;;;;;;3.47;54.93;101800.98;105279;1258;72721;-57
2023/04/03 18:11:54;;;;;;;10.70;3.80;;;;;;;3.44;55.09;101802.16;105179;1258;69186;-60
2023/04/03 18:15:44;;;;;;;33.60;10.00;;;;;;;3.43;54.87;101805.07;105313;1253;75411;-62
2023/04/03 18:19:33;;;;;;;20.80;7.00;;;;;;;3.41;55.38;101800.73;105302;1253;82677;-60
2023/04/03 18:23:13;;;;;;;32.80;15.00;;;;;;;3.40;55.88;101800.71;105325;1259;73750;-56
2023/04/03 18:27:01;;;;;;;7.60;3.30;;;;;;;3.40;55.51;101800.88;105393;1258;69372;-56
2023/04/03 18:30:39;;;;;;;10.80;3.40;;;;;;;3.39;55.62;101803.98;105413;1258;69103;-55
2023/04/03 18:34:29;;;;;;;21.10;6.70;;;;;;;3.36;55.48;101809.12;105362;1257;74654;-58
2023/04/03 18:38:08;;;;;;;11.00;3.50;;;;;;;3.33;55.44;101811.50;105270;1253;82459;-60
2023/04/03 18:41:55;;;;;;;;;;;;;;;;;;;;;
2023/04/03 18:45:38;;;;;;;21.20;9.10;;;;;;;3.30;55.94;101811.80;105238;1254;69194;-57
2023/04/03 18:49:19;;;;;;;;;;;;;;;;;;;;;
2023/04/03 18:53:01;;;;;;;;;;;;;;;;;;;;;
2023/04/03 18:56:51;;;;;;;80.70;23.60;;;;;;;3.21;55.78;101811.30;105288;1253;82032;-55
2023/04/03 19:00:35;;;;;;;38.40;11.80;;;;;;;3.19;56.35;101807.83;105388;1257;74108;-58
2023/04/03 19:04:24;;;;;;;9.80;4.00;;;;;;;3.18;56.00;101801.76;105320;1259;69235;-58
2023/04/03 19:08:13;;;;;;;18.60;6.40;;;;;;;3.15;55.98;101800.50;105306;1259;69174;-59
2023/04/03 19:11:53;;;;;;;;;;;;;;;;;;;;;
2023/04/03 19:16:08;;;;;;;10.90;4.70;;;;;;;3.12;56.14;101803.05;105329;1257;84468;-57
2023/04/03 19:19:12;;;;;;;16.70;6.90;;;;;;;3.12;55.97;101799.41;105360;1257;74236;-57